Time;durP1;ratioP1;P1;durP2;ratioP2;P2;SDS_P1;SDS_P2;PMS_P1;PMS_P2;Temp;Humidity;BMP_temperature;BMP_pressure;BME280_temperature;BME280_humidity;BME280_pressure;Samples;Min_cycle;Max_cycle;Signal;HPM_P1;HPM_P2
2021/07/25 00:00:49;;;;;;;10.98;9.95;;;18.70;99.90;;;;;;5065365;28;20037;-72
2021/07/25 00:03:15;;;;;;;12.35;11.07;;;18.70;99.90;;;;;;5063779;28;20048;-72
2021/07/25 00:05:42;;;;;;;15.70;12.50;;;18.70;99.90;;;;;;5063755;28;20043;-72
2021/07/25 00:08:19;;;;;;;10.38;9.32;;;18.70;99.90;;;;;;5067104;28;20190;-71
2021/07/25 00:10:46;;;;;;;11.43;10.45;;;18.70;99.90;;;;;;5059640;28;20551;-72
2021/07/25 00:13:14;;;;;;;12.35;11.05;;;18.70;99.90;;;;;;5061149;28;20033;-71
2021/07/25 00:15:40;;;;;;;14.40;10.93;;;18.70;99.90;;;;;;5061156;28;20592;-71
2021/07/25 00:18:06;;;;;;;12.30;11.18;;;18.70;99.90;;;;;;5059058;28;20052;-71
2021/07/25 00:20:34;;;;;;;14.18;12.55;;;18.70;99.90;;;;;;5072572;28;20037;-71
2021/07/25 00:23:00;;;;;;;14.13;11.13;;;18.60;99.90;;;;;;5065508;28;20037;-71
2021/07/25 00:25:26;;;;;;;14.32;12.70;;;18.70;99.90;;;;;;5064927;28;20040;-70
2021/07/25 00:27:54;;;;;;;15.43;13.77;;;18.70;99.90;;;;;;5061835;28;20055;-70
2021/07/25 00:30:22;;;;;;;16.25;13.43;;;18.70;99.90;;;;;;5063361;28;20044;-71
2021/07/25 00:32:47;;;;;;;13.95;12.57;;;18.70;99.90;;;;;;5064303;28;20047;-71
2021/07/25 00:35:14;;;;;;;13.95;12.52;;;18.70;99.90;;;;;;5062521;28;21470;-71
2021/07/25 00:37:44;;;;;;;14.35;12.85;;;18.70;99.90;;;;;;5062287;28;20045;-74
2021/07/25 00:40:36;;;;;;;13.43;12.23;;;18.70;99.90;;;;;;5065118;28;20101;-75
2021/07/25 00:43:03;;;;;;;13.45;12.15;;;18.70;99.90;;;;;;5064447;28;20114;-75
2021/07/25 00:45:29;;;;;;;14.15;12.73;;;18.70;99.90;;;;;;5063349;28;20082;-72
2021/07/25 00:47:55;;;;;;;26.98;14.32;;;18.60;99.90;;;;;;5064145;28;20037;-71
2021/07/25 00:50:22;;;;;;;13.57;12.18;;;18.70;99.90;;;;;;5061957;28;20048;-71
2021/07/25 00:52:48;;;;;;;13.40;12.20;;;18.70;99.90;;;;;;5065068;28;20055;-71
2021/07/25 00:55:14;;;;;;;11.52;10.60;;;18.70;99.90;;;;;;5065311;28;20482;-72
2021/07/25 00:57:40;;;;;;;12.65;11.40;;;18.70;99.90;;;;;;5063634;28;20478;-71
2021/07/25 01:00:10;;;;;;;13.07;11.32;;;18.70;99.90;;;;;;5061631;28;20029;-72
2021/07/25 01:02:49;;;;;;;10.35;9.35;;;18.70;99.90;;;;;;5062317;28;20044;-72
2021/07/25 01:05:25;;;;;;;11.20;10.10;;;18.70;99.90;;;;;;5064010;28;20036;-71
2021/07/25 01:08:11;;;;;;;12.38;10.70;;;18.70;99.90;;;;;;5062774;28;20094;-72
2021/07/25 01:10:39;;;;;;;11.85;10.65;;;18.70;99.90;;;;;;5062735;28;20037;-72
2021/07/25 01:13:11;;;;;;;12.35;11.15;;;18.60;99.90;;;;;;5063539;28;20490;-71
2021/07/25 01:15:40;;;;;;;12.55;10.95;;;18.70;99.90;;;;;;5060630;28;20144;-72
2021/07/25 01:18:06;;;;;;;11.10;10.02;;;18.60;99.90;;;;;;5063953;28;20068;-71
2021/07/25 01:20:32;;;;;;;11.60;10.23;;;18.70;99.90;;;;;;5071144;28;20548;-71
2021/07/25 01:22:59;;;;;;;12.80;10.50;;;18.60;99.90;;;;;;5065509;28;20051;-71
2021/07/25 01:25:26;;;;;;;11.07;10.02;;;18.60;99.90;;;;;;5063630;28;20050;-71
2021/07/25 01:28:02;;;;;;;17.48;11.20;;;18.60;99.90;;;;;;5061698;28;20116;-72
2021/07/25 01:30:33;;;;;;;11.02;9.93;;;18.50;99.90;;;;;;5063204;28;20033;-72
2021/07/25 01:33:03;;;;;;;12.25;10.95;;;18.50;99.90;;;;;;5063673;28;20048;-72
2021/07/25 01:35:30;;;;;;;12.48;11.13;;;18.50;99.90;;;;;;5062927;28;20115;-71
2021/07/25 01:37:57;;;;;;;12.02;10.75;;;18.50;99.90;;;;;;5063087;28;21821;-71
2021/07/25 01:40:24;;;;;;;11.55;10.45;;;18.50;99.90;;;;;;5064348;28;20079;-72
2021/07/25 01:42:52;;;;;;;13.10;11.80;;;18.50;99.90;;;;;;5063776;28;20063;-72
2021/07/25 01:45:18;;;;;;;13.75;11.48;;;18.50;99.90;;;;;;5063586;28;20150;-71
2021/07/25 01:47:43;;;;;;;12.20;11.00;;;18.40;99.90;;;;;;5062997;28;20166;-78
2021/07/25 01:50:10;;;;;;;11.55;10.50;;;18.40;99.90;;;;;;5061538;28;20882;-72
2021/07/25 01:52:36;;;;;;;15.68;12.52;;;18.40;99.90;;;;;;5062824;28;20516;-72
2021/07/25 01:55:03;;;;;;;12.38;10.93;;;18.40;99.90;;;;;;5064401;28;20040;-73
2021/07/25 01:57:29;;;;;;;13.27;11.85;;;18.30;99.90;;;;;;5062033;28;20045;-73
2021/07/25 01:59:54;;;;;;;14.27;12.48;;;18.30;99.90;;;;;;5064070;28;20040;-72
2021/07/25 02:02:20;;;;;;;13.20;11.90;;;18.30;99.90;;;;;;5062250;28;20094;-73
2021/07/25 02:04:49;;;;;;;14.25;12.60;;;18.30;99.90;;;;;;5060973;28;20086;-72
2021/07/25 02:07:14;;;;;;;14.50;11.90;;;18.30;99.90;;;;;;5063716;28;20028;-72
2021/07/25 02:09:40;;;;;;;13.98;12.60;;;18.30;99.90;;;;;;5064955;28;20122;-72
2021/07/25 02:12:07;;;;;;;12.80;11.60;;;18.30;99.90;;;;;;5062086;28;20068;-73
2021/07/25 02:14:35;;;;;;;13.15;11.82;;;18.30;99.90;;;;;;5060918;28;20068;-73
2021/07/25 02:17:01;;;;;;;15.13;12.35;;;18.30;99.90;;;;;;5062650;28;20382;-73
2021/07/25 02:19:28;;;;;;;12.15;11.05;;;18.30;99.90;;;;;;5063719;28;20045;-73
2021/07/25 02:21:54;;;;;;;12.85;11.60;;;18.30;99.90;;;;;;5067682;28;20038;-73
2021/07/25 02:24:20;;;;;;;13.23;11.90;;;18.30;99.90;;;;;;5063407;28;20039;-73
2021/07/25 02:26:47;;;;;;;13.15;11.95;;;18.30;99.90;;;;;;5062863;28;20117;-73
2021/07/25 02:29:13;;;;;;;12.77;11.57;;;18.30;99.90;;;;;;5064132;28;20048;-73
2021/07/25 02:31:39;;;;;;;16.10;14.43;;;18.20;99.90;;;;;;5063407;28;20029;-73
2021/07/25 02:34:05;;;;;;;16.73;12.65;;;18.20;99.90;;;;;;5064989;28;20040;-73
2021/07/25 02:36:30;;;;;;;14.68;12.93;;;18.20;99.90;;;;;;5064543;28;20041;-73
2021/07/25 02:38:56;;;;;;;13.63;12.20;;;18.20;99.90;;;;;;5062067;28;20106;-73
2021/07/25 02:41:22;;;;;;;13.75;12.45;;;18.20;99.90;;;;;;5064887;28;20043;-73
2021/07/25 02:43:48;;;;;;;12.00;10.80;;;18.20;99.90;;;;;;5063317;28;20048;-72
2021/07/25 02:46:14;;;;;;;14.13;12.65;;;18.20;99.90;;;;;;5063550;28;20079;-72
2021/07/25 02:48:39;;;;;;;14.07;12.50;;;18.10;99.90;;;;;;5063777;28;20035;-72
2021/07/25 02:51:06;;;;;;;9.30;8.32;;;18.10;99.90;;;;;;5062792;28;20041;-72
2021/07/25 02:53:37;;;;;;;8.93;8.13;;;18.10;99.90;;;;;;5063330;28;20036;-73
2021/07/25 02:56:03;;;;;;;10.68;7.78;;;18.00;99.90;;;;;;5066873;28;20449;-72
2021/07/25 02:58:29;;;;;;;9.27;8.45;;;18.00;99.90;;;;;;5062486;28;20090;-73
2021/07/25 03:00:54;;;;;;;9.48;8.57;;;17.90;99.90;;;;;;5064759;28;20051;-72
2021/07/25 03:03:20;;;;;;;10.30;8.35;;;17.90;99.90;;;;;;5065643;28;20054;-72
2021/07/25 03:05:46;;;;;;;11.00;9.82;;;18.00;99.90;;;;;;5062425;28;20033;-72
2021/07/25 03:08:11;;;;;;;18.98;12.98;;;17.90;99.90;;;;;;5064553;28;20045;-72
2021/07/25 03:10:39;;;;;;;11.32;10.23;;;17.90;99.90;;;;;;5063264;28;20040;-72
2021/07/25 03:13:05;;;;;;;14.88;11.60;;;17.90;99.90;;;;;;5063085;28;20036;-73
2021/07/25 03:15:30;;;;;;;11.43;10.32;;;17.90;99.90;;;;;;5064604;28;20048;-72
2021/07/25 03:17:56;;;;;;;12.93;11.60;;;17.90;99.90;;;;;;5064267;28;20067;-73
2021/07/25 03:20:22;;;;;;;13.00;11.57;;;17.90;99.90;;;;;;5076893;28;20490;-73
2021/07/25 03:22:48;;;;;;;11.82;10.32;;;17.90;99.90;;;;;;5065361;28;20037;-73
2021/07/25 03:25:14;;;;;;;11.30;10.05;;;17.90;99.90;;;;;;5065261;28;20036;-73
2021/07/25 03:27:40;;;;;;;9.95;9.02;;;18.00;99.90;;;;;;5067954;28;20163;-73
2021/07/25 03:30:06;;;;;;;11.65;10.07;;;18.00;99.90;;;;;;5065037;28;20051;-73
2021/07/25 03:32:32;;;;;;;11.02;9.98;;;18.00;99.90;;;;;;5062588;28;20410;-73
2021/07/25 03:34:57;;;;;;;8.70;7.80;;;18.00;99.90;;;;;;5062306;28;20040;-72
2021/07/25 03:37:23;;;;;;;10.48;9.52;;;18.00;99.90;;;;;;5066456;28;20040;-73
2021/07/25 03:39:53;;;;;;;8.77;7.97;;;18.10;99.90;;;;;;5065987;28;20060;-73
2021/07/25 03:42:19;;;;;;;7.78;7.03;;;18.00;99.90;;;;;;5065247;28;20474;-73
2021/07/25 03:44:45;;;;;;;8.30;7.40;;;18.00;99.90;;;;;;5061816;28;20059;-73
2021/07/25 03:47:11;;;;;;;9.15;8.25;;;18.00;99.90;;;;;;5062742;28;20466;-72
2021/07/25 03:49:39;;;;;;;8.27;7.47;;;18.00;99.90;;;;;;5066293;28;20040;-72
2021/07/25 03:52:05;;;;;;;9.35;8.10;;;18.10;99.90;;;;;;5062335;28;20040;-72
2021/07/25 03:54:32;;;;;;;10.95;9.68;;;18.00;99.90;;;;;;5067725;28;20036;-73
2021/07/25 03:57:02;;;;;;;10.38;9.38;;;18.10;99.90;;;;;;5068890;28;20436;-73
2021/07/25 03:59:27;;;;;;;11.35;9.85;;;18.10;99.90;;;;;;5069663;28;20044;-73
2021/07/25 04:01:53;;;;;;;10.10;9.07;;;18.10;99.90;;;;;;5069069;28;20040;-73
2021/07/25 04:04:19;;;;;;;9.95;8.95;;;18.20;99.90;;;;;;5069577;28;20044;-73
2021/07/25 04:06:44;;;;;;;10.82;9.77;;;18.10;99.90;;;;;;5070942;28;20033;-74
2021/07/25 04:09:10;;;;;;;11.85;10.20;;;18.20;99.90;;;;;;5070567;28;20045;-73
2021/07/25 04:11:36;;;;;;;12.38;10.07;;;18.20;99.90;;;;;;5067104;28;20045;-73
2021/07/25 04:14:02;;;;;;;10.45;9.25;;;18.10;99.90;;;;;;5068980;28;20383;-73
2021/07/25 04:16:27;;;;;;;11.07;9.98;;;18.20;99.90;;;;;;5068368;28;20039;-73
2021/07/25 04:18:53;;;;;;;11.02;9.88;;;18.20;99.90;;;;;;5071844;28;20032;-73
2021/07/25 04:21:20;;;;;;;11.75;10.27;;;18.10;99.90;;;;;;5077926;28;20496;-73
2021/07/25 04:23:46;;;;;;;12.80;10.75;;;18.10;99.90;;;;;;5074723;28;20040;-72
2021/07/25 04:26:12;;;;;;;12.25;11.00;;;18.10;99.90;;;;;;5072030;28;20123;-73
2021/07/25 04:28:38;;;;;;;13.90;10.98;;;18.10;99.90;;;;;;5070123;28;20481;-73
2021/07/25 04:31:05;;;;;;;11.73;10.60;;;18.20;99.90;;;;;;5069133;28;20039;-73
2021/07/25 04:33:33;;;;;;;12.52;11.05;;;18.20;99.90;;;;;;5071305;28;20044;-72
2021/07/25 04:36:11;;;;;;;12.60;11.02;;;18.10;99.90;;;;;;5072364;28;20063;-73
2021/07/25 04:38:38;;;;;;;13.65;12.13;;;18.20;99.90;;;;;;5071124;28;20112;-73
2021/07/25 04:41:10;;;;;;;14.13;12.35;;;18.20;99.90;;;;;;5068386;28;21965;-73
2021/07/25 04:43:38;;;;;;;16.42;13.13;;;18.20;99.90;;;;;;5070300;28;20045;-72
2021/07/25 04:46:22;;;;;;;15.02;12.07;;;18.20;99.90;;;;;;5068701;28;20084;-73
2021/07/25 04:48:48;;;;;;;16.90;13.70;;;18.30;99.90;;;;;;5072032;28;20040;-73
2021/07/25 04:51:17;;;;;;;15.05;13.20;;;18.30;99.90;;;;;;5069042;28;20137;-73
2021/07/25 04:53:43;;;;;;;15.57;12.48;;;18.30;99.90;;;;;;5068378;28;20045;-73
2021/07/25 04:56:12;;;;;;;15.10;13.50;;;18.40;99.90;;;;;;5071636;28;20090;-73
2021/07/25 04:58:51;;;;;;;15.88;14.15;;;18.40;99.90;;;;;;5069382;28;20036;-73
2021/07/25 05:01:23;;;;;;;15.60;14.00;;;18.50;99.90;;;;;;5069740;28;21386;-73
2021/07/25 05:03:49;;;;;;;16.08;14.38;;;18.50;99.90;;;;;;5066041;28;20498;-73
2021/07/25 05:06:15;;;;;;;17.98;14.57;;;18.60;99.90;;;;;;5064823;28;20032;-72
2021/07/25 05:08:42;;;;;;;15.60;13.30;;;18.60;99.90;;;;;;5067782;28;20111;-73
2021/07/25 05:11:20;;;;;;;16.40;14.43;;;18.60;99.90;;;;;;5066697;28;20037;-73
2021/07/25 05:13:51;;;;;;;17.42;15.30;;;18.70;99.90;;;;;;5067630;28;20389;-73
2021/07/25 05:16:39;;;;;;;16.98;15.18;;;18.70;99.90;;;;;;5065076;28;20049;-73
2021/07/25 05:19:41;;;;;;;15.35;13.77;;;18.80;99.90;;;;;;5070459;28;20036;-73
2021/07/25 05:22:36;;;;;;;16.35;13.82;;;18.80;99.90;;;;;;5057439;28;20056;-72
2021/07/25 05:25:06;;;;;;;19.83;15.15;;;18.80;99.90;;;;;;5063338;28;20048;-73
2021/07/25 05:27:44;;;;;;;15.93;14.32;;;18.90;99.90;;;;;;5067953;28;20096;-73
2021/07/25 05:30:11;;;;;;;17.75;15.43;;;18.90;99.90;;;;;;5064770;28;20044;-73
2021/07/25 05:32:37;;;;;;;16.77;15.18;;;18.90;99.90;;;;;;5063553;28;20041;-73
2021/07/25 05:35:05;;;;;;;18.50;16.55;;;19.00;99.90;;;;;;5068390;28;20056;-73
2021/07/25 05:37:30;;;;;;;21.92;17.00;;;18.90;99.90;;;;;;5065289;28;20311;-73
2021/07/25 05:39:56;;;;;;;17.83;15.75;;;18.90;99.90;;;;;;5063750;28;20108;-73
2021/07/25 05:42:22;;;;;;;16.95;15.25;;;19.30;99.90;;;;;;5066316;28;20056;-73
2021/07/25 05:44:48;;;;;;;20.10;16.65;;;19.00;99.90;;;;;;5065510;28;20043;-73
2021/07/25 05:47:16;;;;;;;18.50;16.75;;;18.90;99.90;;;;;;5066582;28;20041;-73
2021/07/25 05:49:42;;;;;;;17.92;16.13;;;19.00;99.90;;;;;;5067618;28;20032;-73
2021/07/25 05:52:14;;;;;;;19.80;17.75;;;19.00;99.90;;;;;;5067784;28;20108;-73
2021/07/25 05:54:41;;;;;;;28.55;18.90;;;18.90;99.90;;;;;;5069721;28;20146;-73
2021/07/25 05:57:08;;;;;;;26.25;20.65;;;19.00;99.90;;;;;;5067374;28;20040;-73
2021/07/25 05:59:34;;;;;;;23.60;21.08;;;19.00;99.90;;;;;;5065708;28;20170;-73
2021/07/25 06:02:03;;;;;;;23.52;21.02;;;18.90;99.90;;;;;;5062406;28;20049;-73
2021/07/25 06:04:29;;;;;;;28.83;23.40;;;19.00;99.90;;;;;;5063694;28;20037;-73
2021/07/25 06:06:56;;;;;;;25.13;21.40;;;19.00;99.90;;;;;;5063515;28;20047;-73
2021/07/25 06:09:25;;;;;;;23.70;21.10;;;19.10;99.90;;;;;;5061486;28;20119;-73
2021/07/25 06:11:51;;;;;;;22.13;19.83;;;19.20;99.90;;;;;;5063332;28;20044;-73
2021/07/25 06:14:17;;;;;;;23.17;20.88;;;19.20;99.90;;;;;;5059662;28;20056;-73
2021/07/25 06:16:44;;;;;;;22.05;19.08;;;19.40;99.90;;;;;;5062831;28;20131;-72
2021/07/25 06:19:09;;;;;;;20.77;18.58;;;19.50;99.90;;;;;;5063639;28;20072;-73
2021/07/25 06:21:36;;;;;;;20.15;18.05;;;19.50;99.90;;;;;;5063889;28;20490;-72
2021/07/25 06:24:02;;;;;;;19.13;17.13;;;19.60;99.90;;;;;;5063943;28;20060;-72
2021/07/25 06:26:28;;;;;;;18.60;16.60;;;19.70;99.90;;;;;;5064035;28;22156;-72
2021/07/25 06:28:54;;;;;;;18.67;16.90;;;19.70;99.90;;;;;;5061872;28;20041;-72
2021/07/25 06:31:19;;;;;;;18.17;16.48;;;19.80;99.90;;;;;;5058544;28;20055;-73
2021/07/25 06:33:45;;;;;;;18.50;16.60;;;19.90;99.90;;;;;;5063821;28;20567;-73
2021/07/25 06:36:12;;;;;;;17.48;15.88;;;20.00;99.90;;;;;;5061798;28;20048;-72
2021/07/25 06:38:39;;;;;;;16.73;15.02;;;20.20;99.90;;;;;;5058963;28;20033;-72
2021/07/25 06:41:16;;;;;;;16.10;14.52;;;20.40;99.90;;;;;;5062911;28;20398;-72
2021/07/25 06:43:41;;;;;;;15.38;13.90;;;20.60;99.90;;;;;;5063537;28;20043;-73
2021/07/25 06:46:10;;;;;;;15.07;13.77;;;20.70;99.90;;;;;;5062295;28;20025;-73
2021/07/25 06:48:37;;;;;;;14.55;13.25;;;21.00;99.90;;;;;;5064115;28;20123;-73
2021/07/25 06:51:03;;;;;;;14.43;13.10;;;21.20;99.90;;;;;;5063645;28;20040;-73
2021/07/25 06:53:31;;;;;;;14.32;13.02;;;21.50;99.90;;;;;;5062891;28;20040;-73
2021/07/25 06:56:03;;;;;;;16.27;14.23;;;21.70;99.90;;;;;;5064830;28;20049;-73
2021/07/25 06:58:30;;;;;;;17.08;14.65;;;22.00;99.90;;;;;;5064754;28;20139;-73
2021/07/25 07:00:55;;;;;;;19.30;16.08;;;22.20;99.90;;;;;;5059928;28;20028;-73
2021/07/25 07:03:21;;;;;;;18.05;16.25;;;22.30;99.90;;;;;;5061722;28;20090;-73
2021/07/25 07:05:48;;;;;;;16.67;15.02;;;22.50;99.90;;;;;;5062633;28;20098;-73
2021/07/25 07:08:14;;;;;;;18.73;16.98;;;22.60;99.90;;;;;;5060529;28;20081;-73
2021/07/25 07:10:42;;;;;;;19.70;17.73;;;22.80;99.90;;;;;;5061448;28;20036;-72
2021/07/25 07:13:12;;;;;;;22.10;19.55;;;22.90;99.90;;;;;;5063326;28;20482;-72
2021/07/25 07:15:41;;;;;;;20.83;18.83;;;23.00;99.90;;;;;;5063878;28;20078;-72
2021/07/25 07:18:07;;;;;;;20.88;18.73;;;23.00;99.90;;;;;;5064204;28;20040;-72
2021/07/25 07:20:32;;;;;;;22.55;20.17;;;23.00;99.90;;;;;;5061978;28;20480;-72
2021/07/25 07:23:00;;;;;;;23.20;20.77;;;23.10;99.90;;;;;;5062317;28;20050;-72
2021/07/25 07:25:50;;;;;;;23.70;21.30;;;23.10;99.90;;;;;;5061604;28;20045;-72
2021/07/25 07:28:17;;;;;;;25.13;22.83;;;23.20;99.90;;;;;;5062978;28;20112;-72
2021/07/25 07:30:44;;;;;;;25.60;23.20;;;23.40;99.90;;;;;;5062105;28;20044;-72
2021/07/25 07:33:11;;;;;;;26.17;23.40;;;23.40;99.90;;;;;;5062587;28;20053;-72
2021/07/25 07:35:37;;;;;;;30.05;26.95;;;23.40;99.90;;;;;;5061182;28;20040;-72
2021/07/25 07:38:03;;;;;;;28.88;26.15;;;23.30;99.90;;;;;;5063042;28;20051;-72
2021/07/25 07:40:29;;;;;;;28.23;25.23;;;23.30;99.90;;;;;;5065600;28;20098;-72
2021/07/25 07:42:55;;;;;;;29.90;25.85;;;23.30;99.90;;;;;;5063253;28;20044;-72
2021/07/25 07:45:22;;;;;;;29.70;26.77;;;23.40;99.90;;;;;;5065126;28;20111;-72
2021/07/25 07:47:48;;;;;;;30.67;27.65;;;23.40;99.90;;;;;;5066263;28;20045;-72
2021/07/25 07:50:15;;;;;;;29.05;25.60;;;23.40;99.90;;;;;;5063757;28;20482;-72
2021/07/25 07:52:41;;;;;;;27.98;25.25;;;23.40;99.90;;;;;;5066435;28;20051;-72
2021/07/25 07:55:07;;;;;;;29.63;26.42;;;23.40;99.90;;;;;;5065284;28;20082;-72
2021/07/25 07:57:33;;;;;;;27.98;25.20;;;23.40;99.90;;;;;;5064416;28;20040;-72
2021/07/25 07:59:59;;;;;;;27.05;24.55;;;23.50;99.90;;;;;;5063531;28;20044;-72
2021/07/25 08:02:25;;;;;;;30.52;27.30;;;23.50;99.90;;;;;;5064584;28;20123;-72
2021/07/25 08:04:50;;;;;;;25.85;23.40;;;23.40;99.90;;;;;;5062846;28;20101;-72
2021/07/25 08:07:16;;;;;;;24.58;22.08;;;23.50;99.90;;;;;;5064561;28;20123;-72
2021/07/25 08:09:42;;;;;;;27.30;24.52;;;23.60;99.90;;;;;;5064366;28;20483;-72
2021/07/25 08:12:08;;;;;;;27.67;24.92;;;23.70;99.90;;;;;;5063463;28;20041;-72
2021/07/25 08:14:34;;;;;;;30.08;26.90;;;23.50;99.90;;;;;;5064338;28;20036;-72
2021/07/25 08:17:00;;;;;;;29.63;26.50;;;23.50;99.90;;;;;;5065187;28;20528;-72
2021/07/25 08:19:26;;;;;;;29.75;26.75;;;23.30;99.90;;;;;;5064358;28;20086;-72
2021/07/25 08:21:52;;;;;;;29.85;26.75;;;23.40;99.90;;;;;;5061643;28;20041;-72
2021/07/25 08:24:17;;;;;;;31.92;28.48;;;23.40;99.90;;;;;;5060317;28;20532;-72
2021/07/25 08:26:44;;;;;;;27.95;25.25;;;23.40;99.90;;;;;;5059491;28;20048;-72
2021/07/25 08:29:10;;;;;;;32.72;29.38;;;23.50;99.90;;;;;;5059848;28;20429;-72
2021/07/25 08:31:35;;;;;;;28.15;25.48;;;23.60;99.90;;;;;;5060395;28;20045;-72
2021/07/25 08:34:01;;;;;;;30.38;27.42;;;23.70;99.90;;;;;;5062878;28;20120;-72
2021/07/25 08:36:27;;;;;;;31.23;28.27;;;23.70;99.90;;;;;;5062432;28;20474;-72
2021/07/25 08:38:53;;;;;;;28.67;25.98;;;23.70;99.90;;;;;;5062757;28;20052;-72
2021/07/25 08:41:46;;;;;;;28.35;25.70;;;24.00;99.90;;;;;;5062956;28;20115;-72
2021/07/25 08:44:38;;;;;;;29.30;26.23;;;24.20;99.90;;;;;;5063872;28;20048;-71
2021/07/25 08:47:25;;;;;;;30.10;27.23;;;24.50;99.90;;;;;;5064689;28;20044;-72
2021/07/25 08:49:55;;;;;;;30.90;28.00;;;24.80;99.90;;;;;;5065568;28;20127;-71
2021/07/25 08:52:30;;;;;;;33.25;29.98;;;24.90;99.90;;;;;;5065528;28;20119;-72
2021/07/25 08:54:57;;;;;;;33.60;30.10;;;25.00;99.90;;;;;;5064830;28;20037;-71
2021/07/25 08:57:29;;;;;;;32.03;28.95;;;25.20;99.90;;;;;;5065035;28;20526;-71
2021/07/25 08:59:56;;;;;;;33.97;30.63;;;25.20;99.90;;;;;;5065998;28;20127;-72
2021/07/25 09:02:25;;;;;;;33.80;30.55;;;25.20;99.90;;;;;;5064494;28;20131;-72
2021/07/25 09:04:52;;;;;;;32.55;29.55;;;25.20;99.90;;;;;;5061496;28;20032;-72
2021/07/25 09:07:20;;;;;;;30.90;27.70;;;25.30;99.90;;;;;;5063907;28;20103;-71
2021/07/25 09:09:48;;;;;;;31.63;28.52;;;25.40;99.90;;;;;;5065361;28;20063;-71
2021/07/25 09:12:16;;;;;;;30.00;26.85;;;25.50;99.90;;;;;;5061497;28;20111;-72
2021/07/25 09:14:44;;;;;;;27.55;24.75;;;25.40;99.90;;;;;;5062369;28;20040;-71
2021/07/25 09:17:11;;;;;;;32.20;29.00;;;25.40;99.90;;;;;;5061138;28;20036;-71
2021/07/25 09:20:08;;;;;;;49.28;29.10;;;25.40;99.90;;;;;;5059856;28;20051;-73
2021/07/25 09:22:34;;;;;;;27.13;24.13;;;25.40;99.90;;;;;;5061052;28;20049;-72
2021/07/25 09:25:00;;;;;;;33.88;30.63;;;25.50;99.90;;;;;;5060716;28;20479;-72
2021/07/25 09:27:26;;;;;;;35.15;31.70;;;25.40;99.90;;;;;;5060249;28;20814;-72
2021/07/25 09:29:52;;;;;;;35.92;32.28;;;25.40;99.90;;;;;;5060733;28;20086;-73
2021/07/25 09:32:19;;;;;;;36.35;32.55;;;25.50;99.90;;;;;;5061708;28;20073;-72
2021/07/25 09:34:50;;;;;;;33.90;30.83;;;25.50;99.90;;;;;;5059895;28;20573;-73
2021/07/25 09:37:20;;;;;;;35.60;32.05;;;25.40;99.90;;;;;;5061407;28;20832;-72
2021/07/25 09:39:54;;;;;;;34.72;31.27;;;25.30;99.90;;;;;;5065600;28;20098;-73
2021/07/25 09:42:27;;;;;;;34.05;30.75;;;25.20;99.90;;;;;;5065113;28;20119;-73
2021/07/25 09:44:55;;;;;;;34.40;31.20;;;25.30;99.90;;;;;;5063681;28;20044;-73
2021/07/25 09:47:27;;;;;;;34.42;30.92;;;25.40;99.90;;;;;;5066237;28;20082;-73
2021/07/25 09:49:53;;;;;;;34.65;30.90;;;25.50;99.90;;;;;;5064050;28;20039;-74
2021/07/25 09:52:30;;;;;;;35.15;31.88;;;25.70;99.90;;;;;;5065050;28;20068;-75
2021/07/25 09:54:59;;;;;;;33.13;29.85;;;25.80;99.90;;;;;;5063155;28;20122;-75
2021/07/25 09:57:26;;;;;;;33.63;30.38;;;25.80;99.90;;;;;;5064314;28;20032;-74
2021/07/25 09:59:56;;;;;;;30.48;27.65;;;26.00;99.90;;;;;;5064095;28;20157;-75
2021/07/25 10:02:34;;;;;;;34.22;31.05;;;26.00;99.80;;;;;;5059932;28;20702;-75
2021/07/25 10:05:06;;;;;;;31.38;28.35;;;26.10;99.90;;;;;;5064330;28;20032;-74
2021/07/25 10:07:32;;;;;;;32.35;29.05;;;26.10;99.90;;;;;;5065647;28;20051;-74
2021/07/25 10:10:00;;;;;;;32.50;29.50;;;25.90;99.90;;;;;;5062966;28;20123;-74
2021/07/25 10:12:28;;;;;;;31.60;28.63;;;25.70;99.90;;;;;;5062469;28;20047;-75
2021/07/25 10:15:00;;;;;;;30.55;27.52;;;25.50;99.90;;;;;;5060021;28;20044;-74
2021/07/25 10:17:26;;;;;;;31.88;28.67;;;25.20;99.90;;;;;;5062764;28;20051;-75
2021/07/25 10:19:54;;;;;;;31.10;28.00;;;25.20;99.90;;;;;;5068175;28;20055;-74
2021/07/25 10:22:22;;;;;;;30.60;26.77;;;25.20;99.90;;;;;;5064191;28;20133;-75
2021/07/25 10:24:49;;;;;;;27.27;24.60;;;25.50;99.90;;;;;;5062191;28;20041;-74
2021/07/25 10:27:19;;;;;;;28.58;25.70;;;25.80;99.90;;;;;;5063026;28;20132;-74
2021/07/25 10:29:48;;;;;;;23.35;20.80;;;26.00;99.90;;;;;;5062336;28;20036;-74
2021/07/25 10:32:18;;;;;;;24.75;22.33;;;26.20;99.90;;;;;;5060748;28;20033;-74
2021/07/25 10:34:44;;;;;;;26.33;23.65;;;26.40;99.40;;;;;;5063173;28;20044;-74
2021/07/25 10:37:10;;;;;;;25.77;22.98;;;26.50;99.40;;;;;;5061518;28;20040;-74
2021/07/25 10:39:37;;;;;;;22.52;20.38;;;26.50;99.20;;;;;;5061855;28;20097;-74
2021/07/25 10:42:04;;;;;;;24.90;22.60;;;26.20;99.00;;;;;;5060296;28;20052;-74
2021/07/25 10:44:32;;;;;;;24.35;22.10;;;25.90;99.10;;;;;;5064574;28;20036;-74
2021/07/25 10:47:17;;;;;;;24.65;22.15;;;25.70;99.30;;;;;;5061124;28;20041;-74
2021/07/25 10:49:43;;;;;;;23.48;21.40;;;25.20;98.90;;;;;;5060294;28;20044;-75
2021/07/25 10:52:08;;;;;;;23.25;21.08;;;25.00;99.90;;;;;;5061670;28;20037;-79
2021/07/25 10:54:45;;;;;;;23.33;21.00;;;24.70;99.90;;;;;;5059013;28;20033;-77
2021/07/25 10:57:11;;;;;;;24.48;22.13;;;24.60;99.90;;;;;;5061829;28;20068;-77
2021/07/25 10:59:46;;;;;;;23.58;21.27;;;24.40;99.90;;;;;;5061772;28;20102;-76
2021/07/25 11:02:22;;;;;;;25.15;22.02;;;24.20;99.90;;;;;;5059049;28;20425;-77
2021/07/25 11:04:48;;;;;;;25.48;22.90;;;24.10;99.90;;;;;;5060862;28;20111;-77
2021/07/25 11:07:23;;;;;;;21.95;19.75;;;24.00;99.90;;;;;;5060566;28;20048;-77
2021/07/25 11:10:05;;;;;;;22.58;20.48;;;23.90;99.90;;;;;;5061153;28;20386;-77
2021/07/25 11:12:54;;;;;;;23.48;21.48;;;23.80;99.90;;;;;;5059400;28;20409;-77
2021/07/25 11:15:30;;;;;;;25.08;22.48;;;23.70;99.90;;;;;;5057718;28;20049;-77
2021/07/25 11:18:01;;;;;;;24.48;22.17;;;23.60;99.90;;;;;;5061822;28;20548;-76
2021/07/25 11:20:41;;;;;;;23.85;21.45;;;23.60;99.90;;;;;;5069868;28;20055;-79
2021/07/25 11:23:19;;;;;;;24.40;21.92;;;23.50;99.90;;;;;;5059246;28;20486;-77
2021/07/25 11:25:45;;;;;;;24.45;22.35;;;23.40;99.90;;;;;;5062127;28;20100;-77
2021/07/25 11:28:11;;;;;;;23.05;20.80;;;23.40;99.90;;;;;;5061462;28;20045;-76
2021/07/25 11:30:53;;;;;;;24.30;22.00;;;23.40;99.90;;;;;;5063611;28;20044;-79
2021/07/25 11:33:40;;;;;;;25.75;23.48;;;23.50;99.90;;;;;;5059586;28;20044;-77
2021/07/25 11:36:13;;;;;;;24.83;22.63;;;23.50;99.90;;;;;;5059172;28;20037;-77
2021/07/25 11:38:40;;;;;;;26.08;23.67;;;23.50;99.90;;;;;;5063857;28;20052;-77
2021/07/25 11:41:07;;;;;;;28.02;25.15;;;23.50;99.90;;;;;;5060743;28;20040;-77
2021/07/25 11:44:02;;;;;;;25.35;22.95;;;23.40;99.90;;;;;;5059453;28;20045;-77
2021/07/25 11:46:42;;;;;;;25.35;22.92;;;23.50;99.90;;;;;;5062968;28;20041;-77
2021/07/25 11:49:16;;;;;;;27.40;24.80;;;23.50;99.90;;;;;;5062700;28;20039;-77
2021/07/25 11:51:47;;;;;;;23.38;20.98;;;23.60;99.90;;;;;;5061595;28;20056;-77
2021/07/25 11:54:17;;;;;;;23.35;21.15;;;23.60;99.90;;;;;;5061912;28;20051;-77
2021/07/25 11:56:55;;;;;;;23.67;21.45;;;23.60;99.90;;;;;;5062533;28;20397;-77
2021/07/25 11:59:20;;;;;;;23.50;21.35;;;23.60;99.90;;;;;;5063047;28;20045;-76
2021/07/25 12:01:46;;;;;;;25.45;22.92;;;23.60;99.90;;;;;;5061660;28;20047;-77
2021/07/25 12:04:29;;;;;;;25.67;22.95;;;23.60;99.90;;;;;;5058792;28;20049;-77
2021/07/25 12:07:07;;;;;;;23.15;20.90;;;23.60;99.90;;;;;;5060145;28;20498;-77
2021/07/25 12:09:34;;;;;;;24.00;21.80;;;23.60;99.90;;;;;;5061707;28;20124;-77
2021/07/25 12:12:09;;;;;;;21.48;19.48;;;23.60;99.90;;;;;;5061328;28;20041;-77
2021/07/25 12:14:38;;;;;;;22.80;20.75;;;23.70;99.90;;;;;;5065182;28;20044;-77
2021/07/25 12:17:05;;;;;;;19.80;18.00;;;23.80;99.90;;;;;;5066184;28;20051;-77
2021/07/25 12:19:36;;;;;;;19.83;18.02;;;24.00;99.90;;;;;;5066885;28;20051;-77
2021/07/25 12:22:10;;;;;;;19.50;17.73;;;24.10;99.90;;;;;;5065804;28;20127;-77
2021/07/25 12:24:39;;;;;;;20.92;19.02;;;24.10;99.90;;;;;;5067839;28;20464;-77
2021/07/25 12:27:26;;;;;;;23.40;20.65;;;24.20;99.90;;;;;;5062424;28;20044;-77
2021/07/25 12:29:52;;;;;;;19.25;17.40;;;24.10;99.90;;;;;;5062976;28;20072;-77
2021/07/25 12:32:21;;;;;;;19.58;17.67;;;24.10;99.90;;;;;;5062522;28;20048;-77
2021/07/25 12:34:47;;;;;;;19.08;17.38;;;24.20;99.90;;;;;;5068057;28;20032;-78
2021/07/25 12:37:32;;;;;;;18.17;16.35;;;24.20;99.90;;;;;;5062647;28;20063;-79